createdAt,value
2023-01-23T00:00:32.463Z,99
2023-01-23T00:01:32.451Z,99
2023-01-23T00:02:32.512Z,99
2023-01-23T00:03:32.411Z,99
2023-01-23T00:04:32.415Z,99
2023-01-23T00:05:32.488Z,99
2023-01-23T00:06:32.458Z,99
2023-01-23T00:07:32.418Z,99
2023-01-23T00:08:33.784Z,99
2023-01-23T00:09:37.672Z,99
2023-01-23T00:10:41.635Z,99
2023-01-23T00:11:45.666Z,99
2023-01-23T00:12:49.631Z,99
2023-01-23T00:13:53.686Z,99
2023-01-23T00:14:57.669Z,99
2023-01-23T00:16:01.727Z,99
2023-01-23T00:17:05.658Z,99
2023-01-23T00:18:09.708Z,99
2023-01-23T00:19:13.646Z,99
2023-01-23T00:20:17.936Z,99
2023-01-23T00:21:21.638Z,99
2023-01-23T00:22:25.669Z,99
2023-01-23T00:23:29.723Z,99
2023-01-23T00:24:31.445Z,99
2023-01-23T00:25:31.427Z,99
2023-01-23T00:26:31.420Z,99
2023-01-23T00:27:31.418Z,99
2023-01-23T00:28:31.409Z,99
2023-01-23T00:29:31.458Z,99
2023-01-23T00:30:31.647Z,99
2023-01-23T00:31:31.609Z,99
2023-01-23T00:32:31.440Z,99
2023-01-23T00:33:31.395Z,99
2023-01-23T00:34:31.452Z,99
2023-01-23T00:35:31.422Z,99
2023-01-23T00:36:31.409Z,99
2023-01-23T00:37:31.410Z,99
2023-01-23T00:38:31.427Z,99
2023-01-23T00:39:31.432Z,99
2023-01-23T00:40:31.438Z,99
2023-01-23T00:41:31.424Z,99
2023-01-23T00:42:31.427Z,99
2023-01-23T00:43:31.411Z,99
2023-01-23T00:44:31.434Z,99
2023-01-23T00:45:31.414Z,99
2023-01-23T00:46:31.507Z,99
2023-01-23T00:47:31.408Z,99
2023-01-23T00:48:31.427Z,99
2023-01-23T00:49:31.449Z,99
2023-01-23T00:50:31.456Z,99
2023-01-23T00:51:31.423Z,99
2023-01-23T00:52:31.451Z,99
2023-01-23T00:53:31.435Z,99
2023-01-23T00:54:31.429Z,99
2023-01-23T00:55:31.414Z,99
2023-01-23T00:56:31.420Z,99
2023-01-23T00:57:31.412Z,99
2023-01-23T00:58:31.437Z,99
2023-01-23T00:59:31.442Z,99
2023-01-23T01:00:31.451Z,99
2023-01-23T01:01:31.624Z,99
2023-01-23T01:02:31.522Z,99
2023-01-23T01:03:31.382Z,98
2023-01-23T01:04:31.427Z,98
2023-01-23T01:05:31.419Z,98
2023-01-23T01:06:31.433Z,98
2023-01-23T01:07:31.411Z,98
2023-01-23T01:08:31.434Z,98
2023-01-23T01:09:31.402Z,98
2023-01-23T01:10:31.497Z,98
2023-01-23T01:11:31.410Z,98
2023-01-23T01:12:31.388Z,98
2023-01-23T01:13:31.450Z,98
2023-01-23T01:14:31.420Z,98
2023-01-23T01:15:31.524Z,98
2023-01-23T01:16:31.521Z,98
2023-01-23T01:17:31.432Z,98
2023-01-23T01:18:31.414Z,98
2023-01-23T01:19:31.469Z,98
2023-01-23T01:20:31.400Z,98
2023-01-23T01:21:31.416Z,98
2023-01-23T01:22:31.393Z,98
2023-01-23T01:23:31.408Z,98
2023-01-23T01:24:31.409Z,98
2023-01-23T01:25:31.432Z,98
2023-01-23T01:26:31.411Z,98
2023-01-23T01:27:31.466Z,98
2023-01-23T01:28:31.434Z,98
2023-01-23T01:29:31.452Z,98
2023-01-23T01:30:31.410Z,98
2023-01-23T01:31:31.826Z,98
2023-01-23T01:32:31.397Z,98
2023-01-23T01:33:31.439Z,98
2023-01-23T01:34:31.454Z,98
2023-01-23T01:35:31.420Z,98
2023-01-23T01:36:31.414Z,98
2023-01-23T01:37:31.476Z,98
2023-01-23T01:38:31.404Z,98
2023-01-23T01:39:31.439Z,98
2023-01-23T01:40:31.515Z,98
2023-01-23T01:41:31.591Z,98
2023-01-23T01:42:31.540Z,98
2023-01-23T01:43:31.611Z,98
2023-01-23T01:44:31.581Z,98
2023-01-23T01:45:31.550Z,98
2023-01-23T01:46:31.554Z,98
2023-01-23T01:47:31.601Z,98
2023-01-23T01:48:31.576Z,98
2023-01-23T01:49:31.559Z,98
2023-01-23T01:50:31.574Z,98
2023-01-23T01:51:31.577Z,98
2023-01-23T01:52:31.529Z,98
2023-01-23T01:53:31.575Z,98
2023-01-23T01:54:31.506Z,98
2023-01-23T01:55:31.576Z,98
2023-01-23T01:56:31.417Z,98
2023-01-23T01:57:31.492Z,98
2023-01-23T01:58:31.444Z,98
2023-01-23T01:59:31.474Z,98
2023-01-23T02:00:31.448Z,98
2023-01-23T02:01:31.449Z,98
2023-01-23T02:02:31.414Z,98
2023-01-23T02:03:31.440Z,98
2023-01-23T02:04:31.497Z,98
2023-01-23T02:05:31.412Z,98
2023-01-23T02:06:31.405Z,98
2023-01-23T02:07:31.431Z,98
2023-01-23T02:08:31.400Z,98
2023-01-23T02:09:31.474Z,98
2023-01-23T02:10:31.406Z,98
2023-01-23T02:11:31.417Z,98
2023-01-23T02:12:31.398Z,98
2023-01-23T02:13:31.453Z,97
2023-01-23T02:14:31.421Z,97
2023-01-23T02:15:31.420Z,97
2023-01-23T02:16:31.507Z,97
2023-01-23T02:17:31.460Z,97
2023-01-23T02:18:32.443Z,97
2023-01-23T02:19:31.416Z,97
2023-01-23T02:20:31.445Z,97
2023-01-23T02:21:31.459Z,97
2023-01-23T02:22:31.425Z,97
2023-01-23T02:23:31.410Z,98
2023-01-23T02:24:31.416Z,98
2023-01-23T02:25:31.426Z,98
2023-01-23T02:26:31.409Z,98
2023-01-23T02:27:31.428Z,97
2023-01-23T02:28:31.400Z,98
2023-01-23T02:29:31.422Z,97
2023-01-23T02:30:31.393Z,97
2023-01-23T02:31:31.560Z,97
2023-01-23T02:32:31.398Z,97
2023-01-23T02:33:31.434Z,97
2023-01-23T02:34:31.422Z,97
2023-01-23T02:35:31.463Z,97
2023-01-23T02:36:31.431Z,97
2023-01-23T02:37:31.425Z,97
2023-01-23T02:38:31.509Z,97
2023-01-23T02:39:31.421Z,97
2023-01-23T02:40:31.406Z,97
2023-01-23T02:41:31.429Z,97
2023-01-23T02:42:31.403Z,97
2023-01-23T02:43:31.419Z,97
2023-01-23T02:44:31.419Z,97
2023-01-23T02:45:31.494Z,98
2023-01-23T02:46:31.427Z,98
2023-01-23T02:47:31.413Z,98
2023-01-23T02:48:31.387Z,98
2023-01-23T02:49:31.488Z,98
2023-01-23T02:50:31.441Z,98
2023-01-23T02:51:31.453Z,98
2023-01-23T02:52:31.431Z,98
2023-01-23T02:53:31.434Z,98
2023-01-23T02:54:31.433Z,98
2023-01-23T02:55:31.494Z,98
2023-01-23T02:56:31.404Z,98
2023-01-23T02:57:31.425Z,98
2023-01-23T02:58:31.407Z,98
2023-01-23T02:59:31.461Z,98
2023-01-23T03:00:31.436Z,98
2023-01-23T03:01:31.403Z,98
2023-01-23T03:02:31.463Z,98
2023-01-23T03:03:31.491Z,98
2023-01-23T03:04:31.398Z,98
2023-01-23T03:05:31.412Z,98
2023-01-23T03:06:31.469Z,98
2023-01-23T03:07:31.419Z,98
2023-01-23T03:08:31.379Z,98
2023-01-23T03:09:31.425Z,97
2023-01-23T03:10:31.393Z,97
2023-01-23T03:11:31.462Z,98
2023-01-23T03:12:31.427Z,98
2023-01-23T03:13:31.466Z,97
2023-01-23T03:14:31.425Z,97
2023-01-23T03:15:31.513Z,98
2023-01-23T03:16:31.612Z,98
2023-01-23T03:17:31.549Z,98
2023-01-23T03:18:31.443Z,98
2023-01-23T03:19:31.539Z,98
2023-01-23T03:20:31.448Z,98
2023-01-23T03:21:31.437Z,97
2023-01-23T03:22:31.502Z,98
2023-01-23T03:23:31.425Z,98
2023-01-23T03:24:31.536Z,98
2023-01-23T03:25:31.403Z,98
2023-01-23T03:26:31.399Z,98
2023-01-23T03:27:31.571Z,98
2023-01-23T03:28:31.482Z,98
2023-01-23T03:29:31.519Z,98
2023-01-23T03:30:31.482Z,98
2023-01-23T03:31:31.537Z,98
2023-01-23T03:32:31.377Z,98
2023-01-23T03:33:31.595Z,98
2023-01-23T03:34:31.482Z,98
2023-01-23T03:35:31.534Z,98
2023-01-23T03:36:31.444Z,98
2023-01-23T03:37:31.401Z,98
2023-01-23T03:38:31.506Z,98
2023-01-23T03:39:31.413Z,98
2023-01-23T03:40:31.528Z,98
2023-01-23T03:41:31.531Z,97
2023-01-23T03:42:31.499Z,98
2023-01-23T03:43:31.475Z,97
2023-01-23T03:44:31.509Z,97
2023-01-23T03:45:31.558Z,97
2023-01-23T03:46:31.544Z,97
2023-01-23T03:47:31.591Z,98
2023-01-23T03:48:31.530Z,98
2023-01-23T03:49:31.469Z,98
2023-01-23T03:50:31.392Z,98
2023-01-23T03:51:31.405Z,98
2023-01-23T03:52:31.418Z,98
2023-01-23T03:53:31.420Z,98
2023-01-23T03:54:31.441Z,98
2023-01-23T03:55:31.418Z,98
2023-01-23T03:56:31.382Z,98
2023-01-23T03:57:31.435Z,98
2023-01-23T03:58:31.456Z,98
2023-01-23T03:59:31.442Z,98
2023-01-23T04:00:31.397Z,98
2023-01-23T04:01:31.400Z,98
2023-01-23T04:02:31.398Z,98
2023-01-23T04:03:31.401Z,98
2023-01-23T04:04:31.373Z,98
2023-01-23T04:05:31.590Z,98
2023-01-23T04:06:31.411Z,98
2023-01-23T04:07:31.398Z,98
2023-01-23T04:08:31.410Z,98
2023-01-23T04:09:31.440Z,98
2023-01-23T04:10:31.381Z,98
2023-01-23T04:11:31.407Z,98
2023-01-23T04:12:31.339Z,98
2023-01-23T04:13:31.413Z,98
2023-01-23T04:14:31.420Z,98
2023-01-23T04:15:31.395Z,98
2023-01-23T04:16:31.440Z,98
2023-01-23T04:17:31.407Z,98
2023-01-23T04:18:31.401Z,98
2023-01-23T04:19:31.374Z,98
2023-01-23T04:20:31.393Z,98
2023-01-23T04:21:31.426Z,98
2023-01-23T04:22:31.411Z,98
2023-01-23T04:23:31.387Z,98
2023-01-23T04:24:31.392Z,98
2023-01-23T04:25:31.427Z,98
2023-01-23T04:26:31.448Z,98
2023-01-23T04:27:31.410Z,98
2023-01-23T04:28:31.385Z,98
2023-01-23T04:29:31.400Z,98
2023-01-23T04:30:31.468Z,98
2023-01-23T04:31:31.628Z,98
2023-01-23T04:32:31.391Z,98
2023-01-23T04:33:31.423Z,98
2023-01-23T04:34:31.430Z,98
2023-01-23T04:35:31.430Z,98
2023-01-23T04:36:31.409Z,98
2023-01-23T04:37:31.395Z,98
2023-01-23T04:38:31.405Z,98
2023-01-23T04:39:31.390Z,98
2023-01-23T04:40:31.461Z,98
2023-01-23T04:41:31.409Z,98
2023-01-23T04:42:31.421Z,98
2023-01-23T04:43:31.395Z,98
2023-01-23T04:44:31.397Z,98
2023-01-23T04:45:31.483Z,98
2023-01-23T04:46:31.413Z,98
2023-01-23T04:47:31.460Z,98
2023-01-23T04:48:31.390Z,98
2023-01-23T04:49:31.408Z,98
2023-01-23T04:50:31.402Z,98
2023-01-23T04:51:31.399Z,98
2023-01-23T04:52:31.404Z,97
2023-01-23T04:53:31.402Z,97
2023-01-23T04:54:31.479Z,97
2023-01-23T04:55:31.360Z,97
2023-01-23T04:56:31.391Z,97
2023-01-23T04:57:31.408Z,97
2023-01-23T04:58:31.427Z,97
2023-01-23T04:59:31.390Z,97
2023-01-23T05:00:31.363Z,97
2023-01-23T05:01:31.410Z,97
2023-01-23T05:02:31.468Z,97
2023-01-23T05:03:31.422Z,97
2023-01-23T05:04:31.404Z,97
2023-01-23T05:05:31.477Z,97
2023-01-23T05:06:31.407Z,97
2023-01-23T05:07:31.382Z,97
2023-01-23T05:08:31.406Z,97
2023-01-23T05:09:31.428Z,97
2023-01-23T05:10:31.395Z,97
2023-01-23T05:11:31.539Z,97
2023-01-23T05:12:31.393Z,97
2023-01-23T05:13:31.409Z,97
2023-01-23T05:14:31.395Z,97
2023-01-23T05:15:31.478Z,97
2023-01-23T05:16:31.403Z,97
2023-01-23T05:17:31.379Z,97
2023-01-23T05:18:31.397Z,97
2023-01-23T05:19:31.406Z,97
2023-01-23T05:20:31.428Z,97
2023-01-23T05:21:31.418Z,97
2023-01-23T05:22:31.470Z,97
2023-01-23T05:23:31.372Z,97
2023-01-23T05:24:31.439Z,97
2023-01-23T05:25:31.403Z,97
2023-01-23T05:26:31.374Z,97
2023-01-23T05:27:31.399Z,97
2023-01-23T05:28:31.406Z,97
2023-01-23T05:29:31.440Z,97
2023-01-23T05:30:31.485Z,97
2023-01-23T05:31:31.565Z,97
2023-01-23T05:32:31.399Z,97
2023-01-23T05:33:31.431Z,97
2023-01-23T05:34:31.366Z,97
2023-01-23T05:35:31.358Z,97
2023-01-23T05:36:31.417Z,97
2023-01-23T05:37:31.398Z,97
2023-01-23T05:38:31.398Z,97
2023-01-23T05:39:31.441Z,97
2023-01-23T05:40:31.412Z,97
2023-01-23T05:41:31.421Z,97
2023-01-23T05:42:31.391Z,97
2023-01-23T05:43:31.379Z,97
2023-01-23T05:44:31.416Z,97
2023-01-23T05:45:31.413Z,97
2023-01-23T05:46:31.446Z,97
2023-01-23T05:47:31.515Z,97
2023-01-23T05:48:31.467Z,97
2023-01-23T05:49:31.415Z,97
2023-01-23T05:50:33.705Z,97
2023-01-23T05:51:31.420Z,97
2023-01-23T05:52:31.373Z,97
2023-01-23T05:53:31.416Z,97
2023-01-23T05:54:31.397Z,97
2023-01-23T05:55:31.402Z,97
2023-01-23T05:56:31.399Z,97
2023-01-23T05:57:31.398Z,97
2023-01-23T05:58:31.403Z,97
2023-01-23T05:59:31.407Z,97
2023-01-23T06:00:31.438Z,97
2023-01-23T06:01:31.414Z,97
2023-01-23T06:02:31.449Z,97
2023-01-23T06:03:31.471Z,97
2023-01-23T06:04:31.407Z,97
2023-01-23T06:05:31.407Z,97
2023-01-23T06:06:31.405Z,97
2023-01-23T06:07:31.383Z,97
2023-01-23T06:08:31.405Z,97
2023-01-23T06:09:31.426Z,97
2023-01-23T06:10:31.375Z,97
2023-01-23T06:11:31.354Z,97
2023-01-23T06:12:31.405Z,97
2023-01-23T06:13:31.385Z,97
2023-01-23T06:14:31.417Z,97
2023-01-23T06:15:31.506Z,97
2023-01-23T06:16:31.390Z,97
2023-01-23T06:17:31.415Z,97
2023-01-23T06:18:31.440Z,97
2023-01-23T06:19:31.396Z,97
2023-01-23T06:20:31.417Z,97
2023-01-23T06:21:31.381Z,97
2023-01-23T06:22:31.585Z,97
2023-01-23T06:23:31.382Z,97
2023-01-23T06:24:31.402Z,97
2023-01-23T06:25:31.485Z,97
2023-01-23T06:26:31.413Z,97
2023-01-23T06:27:31.392Z,97
2023-01-23T06:28:31.377Z,97
2023-01-23T06:29:31.371Z,97
2023-01-23T06:30:31.501Z,97
2023-01-23T06:31:31.505Z,97
2023-01-23T06:32:31.404Z,97
2023-01-23T06:33:31.402Z,97
2023-01-23T06:34:31.426Z,97
2023-01-23T06:35:31.439Z,97
2023-01-23T06:36:31.394Z,97
2023-01-23T06:37:31.365Z,97
2023-01-23T06:38:31.407Z,96
2023-01-23T06:39:31.380Z,97
2023-01-23T06:40:31.415Z,96
2023-01-23T06:41:31.380Z,96
2023-01-23T06:42:31.392Z,96
2023-01-23T06:43:32.381Z,96
2023-01-23T06:44:31.423Z,96
2023-01-23T06:45:31.387Z,96
2023-01-23T06:46:31.531Z,96
2023-01-23T06:47:31.377Z,96
2023-01-23T06:48:31.383Z,96
2023-01-23T06:49:31.356Z,96
2023-01-23T06:50:31.422Z,97
2023-01-23T06:51:31.369Z,97
2023-01-23T06:52:31.394Z,96
2023-01-23T06:53:31.370Z,96
2023-01-23T06:54:31.433Z,96
2023-01-23T06:55:31.367Z,96
2023-01-23T06:56:31.390Z,96
2023-01-23T06:57:31.363Z,96
2023-01-23T06:58:31.395Z,96
2023-01-23T06:59:31.383Z,96
2023-01-23T07:00:31.565Z,96
2023-01-23T07:01:31.522Z,96
2023-01-23T07:02:31.467Z,96
2023-01-23T07:03:31.392Z,96
2023-01-23T07:04:31.496Z,96
2023-01-23T07:05:31.446Z,96
2023-01-23T07:06:31.462Z,96
2023-01-23T07:07:31.368Z,96
2023-01-23T07:08:31.373Z,96
2023-01-23T07:09:31.402Z,96
2023-01-23T07:10:31.390Z,97
2023-01-23T07:11:31.408Z,97
2023-01-23T07:12:31.465Z,97
2023-01-23T07:13:31.409Z,97
2023-01-23T07:14:31.407Z,97
2023-01-23T07:15:31.412Z,97
2023-01-23T07:16:31.448Z,97
2023-01-23T07:17:31.389Z,97
2023-01-23T07:18:31.396Z,97
2023-01-23T07:19:31.436Z,97
2023-01-23T07:20:31.393Z,97
2023-01-23T07:21:31.427Z,97
2023-01-23T07:22:31.676Z,97
2023-01-23T07:23:31.400Z,97
2023-01-23T07:24:31.364Z,97
2023-01-23T07:25:31.363Z,97
2023-01-23T07:26:31.434Z,97
2023-01-23T07:27:31.385Z,97
2023-01-23T07:28:31.413Z,97
2023-01-23T07:29:31.376Z,97
2023-01-23T07:30:31.439Z,97
2023-01-23T07:31:31.447Z,97
2023-01-23T07:32:31.372Z,97
2023-01-23T07:33:31.370Z,97
2023-01-23T07:34:31.380Z,97
2023-01-23T07:35:31.417Z,97
2023-01-23T07:36:31.402Z,96
2023-01-23T07:37:31.381Z,96
2023-01-23T07:38:31.398Z,96
2023-01-23T07:39:31.389Z,96
2023-01-23T07:40:31.366Z,96
2023-01-23T07:41:31.345Z,96
2023-01-23T07:42:31.428Z,96
2023-01-23T07:43:31.381Z,96
2023-01-23T07:44:31.397Z,96
2023-01-23T07:45:31.362Z,96
2023-01-23T07:46:31.421Z,96
2023-01-23T07:47:31.413Z,96
2023-01-23T07:48:31.378Z,96
2023-01-23T07:49:31.419Z,96
2023-01-23T07:50:31.414Z,96
2023-01-23T07:51:31.389Z,96
2023-01-23T07:52:31.507Z,96
2023-01-23T07:53:31.360Z,96
2023-01-23T07:54:31.394Z,96
2023-01-23T07:55:31.389Z,96
2023-01-23T07:56:31.453Z,96
2023-01-23T07:57:31.381Z,96
2023-01-23T07:58:31.423Z,96
2023-01-23T07:59:31.359Z,96
2023-01-23T08:00:32.190Z,95
2023-01-23T08:01:31.396Z,95
2023-01-23T08:02:31.365Z,95
2023-01-23T08:03:31.408Z,95
2023-01-23T08:04:31.416Z,95
2023-01-23T08:05:31.397Z,95
2023-01-23T08:06:31.444Z,95
2023-01-23T08:07:31.379Z,95
2023-01-23T08:08:31.378Z,95
2023-01-23T08:09:31.380Z,95
2023-01-23T08:10:31.370Z,95
2023-01-23T08:11:32.917Z,95
2023-01-23T08:12:31.365Z,95
2023-01-23T08:13:31.385Z,95
2023-01-23T08:14:31.357Z,95
2023-01-23T08:15:31.368Z,95
2023-01-23T08:16:31.482Z,95
2023-01-23T08:17:31.385Z,95
2023-01-23T08:18:31.390Z,95
2023-01-23T08:19:31.384Z,95
2023-01-23T08:20:31.442Z,95
2023-01-23T08:21:31.360Z,95
2023-01-23T08:22:31.394Z,95
2023-01-23T08:23:31.379Z,95
2023-01-23T08:24:31.391Z,95
2023-01-23T08:25:31.393Z,95
2023-01-23T08:26:31.363Z,95
2023-01-23T08:27:31.392Z,95
2023-01-23T08:28:31.397Z,95
2023-01-23T08:29:31.369Z,95
2023-01-23T08:30:31.347Z,95
2023-01-23T08:31:31.428Z,95
2023-01-23T08:32:31.400Z,95
2023-01-23T08:33:31.380Z,95
2023-01-23T08:34:31.384Z,95
2023-01-23T08:35:31.399Z,95
2023-01-23T08:36:31.385Z,95
2023-01-23T08:37:31.392Z,95
2023-01-23T08:38:31.408Z,94
2023-01-23T08:39:31.373Z,94
2023-01-23T08:40:31.400Z,95
2023-01-23T08:41:31.402Z,94
2023-01-23T08:42:31.389Z,95
2023-01-23T08:43:31.376Z,94
2023-01-23T08:44:31.405Z,94
2023-01-23T08:45:31.481Z,94
2023-01-23T08:46:31.461Z,94
2023-01-23T08:47:31.427Z,94
2023-01-23T08:48:31.461Z,94
2023-01-23T08:49:31.455Z,94
2023-01-23T08:50:31.352Z,94
2023-01-23T08:51:31.425Z,94
2023-01-23T08:52:31.402Z,94
2023-01-23T08:53:31.374Z,94
2023-01-23T08:54:31.354Z,94
2023-01-23T08:55:31.385Z,94
2023-01-23T08:56:31.391Z,94
2023-01-23T08:57:31.422Z,94
2023-01-23T08:58:31.363Z,94
2023-01-23T08:59:31.358Z,93
2023-01-23T09:00:31.354Z,94
2023-01-23T09:01:31.457Z,93
2023-01-23T09:02:31.418Z,93
2023-01-23T09:03:31.423Z,93
2023-01-23T09:04:31.382Z,93
2023-01-23T09:05:31.374Z,93
2023-01-23T09:06:31.378Z,93
2023-01-23T09:07:31.364Z,93
2023-01-23T09:08:31.458Z,93
2023-01-23T09:09:31.398Z,93
2023-01-23T09:10:31.387Z,93
2023-01-23T09:11:31.352Z,94
2023-01-23T09:12:31.381Z,94
2023-01-23T09:13:31.363Z,93
2023-01-23T09:14:31.447Z,93
2023-01-23T09:15:31.361Z,93
2023-01-23T09:16:31.497Z,93
2023-01-23T09:17:31.349Z,93
2023-01-23T09:18:31.401Z,93
2023-01-23T09:19:32.383Z,93
2023-01-23T09:20:31.368Z,93
2023-01-23T09:21:31.355Z,93
2023-01-23T09:22:31.454Z,93
2023-01-23T09:23:31.374Z,93
2023-01-23T09:24:31.388Z,93
2023-01-23T09:25:31.386Z,93
2023-01-23T09:26:31.390Z,93
2023-01-23T09:27:31.380Z,93
2023-01-23T09:28:31.343Z,93
2023-01-23T09:29:31.398Z,93
2023-01-23T09:30:31.394Z,93
2023-01-23T09:31:31.441Z,93
2023-01-23T09:32:31.375Z,93
2023-01-23T09:33:31.373Z,92
2023-01-23T09:34:31.398Z,92
2023-01-23T09:35:31.367Z,92
2023-01-23T09:36:42.487Z,92
2023-01-23T09:37:31.348Z,93
2023-01-23T09:38:31.427Z,93
2023-01-23T09:39:31.356Z,92
2023-01-23T09:40:31.364Z,92
2023-01-23T09:41:31.374Z,93
2023-01-23T09:42:31.375Z,93
2023-01-23T09:43:31.361Z,93
2023-01-23T09:44:31.399Z,93
2023-01-23T09:45:31.349Z,93
2023-01-23T09:46:31.380Z,93
2023-01-23T09:47:31.954Z,92
2023-01-23T09:48:31.433Z,92
2023-01-23T09:49:31.336Z,92
2023-01-23T09:50:31.382Z,92
2023-01-23T09:51:31.450Z,92
2023-01-23T09:52:31.400Z,92
2023-01-23T09:53:31.384Z,92
2023-01-23T09:54:31.393Z,92
2023-01-23T09:55:31.399Z,92
2023-01-23T09:56:31.384Z,92
2023-01-23T09:57:31.428Z,92
2023-01-23T09:58:31.378Z,92
2023-01-23T09:59:31.397Z,92
2023-01-23T10:00:31.363Z,92
2023-01-23T10:01:31.423Z,92
2023-01-23T10:02:31.557Z,92
2023-01-23T10:03:31.358Z,92
2023-01-23T10:04:31.372Z,92
2023-01-23T10:05:31.385Z,93
2023-01-23T10:06:31.382Z,93
2023-01-23T10:07:31.472Z,93
2023-01-23T10:08:31.364Z,93
2023-01-23T10:09:31.360Z,93
2023-01-23T10:10:31.425Z,92
2023-01-23T10:11:31.388Z,93
2023-01-23T10:12:31.315Z,92
2023-01-23T10:13:31.431Z,93
2023-01-23T10:14:31.351Z,93
2023-01-23T10:15:31.397Z,93
2023-01-23T10:16:44.752Z,93
2023-01-23T10:17:31.452Z,93
2023-01-23T10:18:31.375Z,93
2023-01-23T10:19:31.385Z,93
2023-01-23T10:20:31.353Z,93
2023-01-23T10:21:31.373Z,93
2023-01-23T10:22:31.376Z,94
2023-01-23T10:23:31.409Z,94
2023-01-23T10:24:39.892Z,93
2023-01-23T10:25:31.451Z,94
2023-01-23T10:26:31.766Z,93
2023-01-23T10:27:31.671Z,94
2023-01-23T10:28:31.363Z,94
2023-01-23T10:29:31.385Z,94
2023-01-23T10:30:31.533Z,94
2023-01-23T10:31:31.499Z,94
2023-01-23T10:32:31.362Z,94
2023-01-23T10:33:31.376Z,94
2023-01-23T10:34:31.368Z,94
2023-01-23T10:35:31.421Z,94
2023-01-23T10:36:42.109Z,94
2023-01-23T10:37:31.651Z,94
2023-01-23T10:38:31.361Z,94
2023-01-23T10:39:31.349Z,94
2023-01-23T10:40:31.330Z,93
2023-01-23T10:41:31.490Z,93
2023-01-23T10:42:31.361Z,93
2023-01-23T10:43:31.408Z,93
2023-01-23T10:44:31.361Z,93
2023-01-23T10:45:31.446Z,93
2023-01-23T10:46:31.443Z,93
2023-01-23T10:47:33.247Z,93
2023-01-23T10:48:31.348Z,93
2023-01-23T10:49:31.399Z,93
2023-01-23T10:50:31.345Z,93
2023-01-23T10:51:31.452Z,93
2023-01-23T10:52:31.388Z,93
2023-01-23T10:53:31.358Z,93
2023-01-23T10:54:33.249Z,93
2023-01-23T10:55:31.380Z,93
2023-01-23T10:56:31.380Z,93
2023-01-23T10:57:31.406Z,93
2023-01-23T10:58:31.400Z,93
2023-01-23T10:59:31.429Z,93
2023-01-23T11:00:31.366Z,93
2023-01-23T11:01:31.447Z,93
2023-01-23T11:02:31.516Z,93
2023-01-23T11:03:31.395Z,94
2023-01-23T11:04:31.370Z,93
2023-01-23T11:05:33.680Z,93
2023-01-23T11:06:31.326Z,94
2023-01-23T11:07:31.423Z,94
2023-01-23T11:08:31.336Z,94
2023-01-23T11:09:31.387Z,94
2023-01-23T11:10:31.377Z,94
2023-01-23T11:11:31.415Z,93
2023-01-23T11:12:31.331Z,93
2023-01-23T11:13:31.368Z,94
2023-01-23T11:14:31.465Z,94
2023-01-23T11:15:31.543Z,94
2023-01-23T11:16:31.321Z,94
2023-01-23T11:17:31.345Z,93
2023-01-23T11:18:31.572Z,93
2023-01-23T11:19:31.380Z,93
2023-01-23T11:20:31.380Z,93
2023-01-23T11:21:31.491Z,92
2023-01-23T11:22:31.383Z,92
2023-01-23T11:23:31.342Z,92
2023-01-23T11:24:39.781Z,92
2023-01-23T11:25:31.374Z,92
2023-01-23T11:26:31.395Z,92
2023-01-23T11:27:31.435Z,92
2023-01-23T11:28:31.372Z,92
2023-01-23T11:29:31.381Z,92
2023-01-23T11:30:31.432Z,93
2023-01-23T11:31:31.496Z,93
2023-01-23T11:32:31.606Z,93
2023-01-23T11:33:31.397Z,93
2023-01-23T11:34:31.366Z,93
2023-01-23T11:35:31.370Z,93
2023-01-23T11:36:31.370Z,93
2023-01-23T11:37:31.431Z,93
2023-01-23T11:38:51.399Z,93
2023-01-23T11:39:45.809Z,93
2023-01-23T11:40:49.808Z,93
2023-01-23T11:41:53.830Z,93
2023-01-23T11:42:57.823Z,93
2023-01-23T11:44:01.885Z,93
2023-01-23T11:45:05.792Z,93
2023-01-23T11:46:09.846Z,93
2023-01-23T11:47:13.895Z,93
2023-01-23T11:48:17.847Z,93
2023-01-23T11:49:21.827Z,93
2023-01-23T11:50:25.792Z,93
2023-01-23T11:51:29.937Z,93
2023-01-23T11:52:31.320Z,93
2023-01-23T11:53:41.799Z,93
2023-01-23T11:54:31.380Z,92
2023-01-23T11:55:32.779Z,92
2023-01-23T11:56:31.349Z,92
2023-01-23T11:57:31.337Z,92
2023-01-23T11:58:32.123Z,92
2023-01-23T11:59:31.342Z,93
2023-01-23T12:00:31.367Z,93
2023-01-23T12:01:31.351Z,93
2023-01-23T12:02:31.443Z,93
2023-01-23T12:03:31.447Z,92
2023-01-23T12:04:31.461Z,92
2023-01-23T12:05:31.343Z,92
2023-01-23T12:06:31.356Z,92
2023-01-23T12:07:31.359Z,92
2023-01-23T12:08:31.316Z,92
2023-01-23T12:09:31.390Z,92
2023-01-23T12:10:31.349Z,92
2023-01-23T12:11:31.352Z,92
2023-01-23T12:12:31.313Z,92
2023-01-23T12:13:31.341Z,92
2023-01-23T12:14:31.427Z,92
2023-01-23T12:15:31.328Z,92
2023-01-23T12:16:31.528Z,92
2023-01-23T12:17:31.598Z,92
2023-01-23T12:18:31.355Z,92
2023-01-23T12:19:31.341Z,92
2023-01-23T12:20:31.361Z,92
2023-01-23T12:21:31.356Z,92
2023-01-23T12:22:31.364Z,92
2023-01-23T12:23:31.345Z,92
2023-01-23T12:24:31.357Z,92
2023-01-23T12:25:31.369Z,92
2023-01-23T12:26:31.363Z,92
2023-01-23T12:27:31.345Z,92
2023-01-23T12:28:31.417Z,92
2023-01-23T12:29:31.345Z,92
2023-01-23T12:30:31.353Z,92
2023-01-23T12:31:31.480Z,92
2023-01-23T12:32:31.393Z,92
2023-01-23T12:33:31.376Z,92
2023-01-23T12:34:31.347Z,92
2023-01-23T12:35:31.367Z,92
2023-01-23T12:36:31.386Z,92
2023-01-23T12:37:31.434Z,92
2023-01-23T12:38:31.340Z,92
2023-01-23T12:39:31.332Z,92
2023-01-23T12:40:31.402Z,92
2023-01-23T12:41:31.348Z,92
2023-01-23T12:42:31.395Z,92
2023-01-23T12:43:31.328Z,92
2023-01-23T12:44:31.354Z,92
2023-01-23T12:45:31.344Z,92
2023-01-23T12:46:31.392Z,92
2023-01-23T12:47:31.327Z,92
2023-01-23T12:48:31.353Z,92
2023-01-23T12:49:31.629Z,92
2023-01-23T12:50:31.410Z,92
2023-01-23T12:51:31.444Z,92
2023-01-23T12:52:31.379Z,92
2023-01-23T12:53:31.329Z,92
2023-01-23T12:54:31.365Z,92
2023-01-23T12:55:31.360Z,92
2023-01-23T12:56:31.388Z,92
2023-01-23T12:57:45.888Z,92
2023-01-23T12:58:31.430Z,92
2023-01-23T12:59:31.337Z,91
2023-01-23T13:00:31.455Z,91
2023-01-23T13:01:31.294Z,92
2023-01-23T13:02:31.403Z,91
2023-01-23T13:03:37.446Z,91
2023-01-23T13:04:31.365Z,91
2023-01-23T13:05:31.331Z,91
2023-01-23T13:06:31.347Z,91
2023-01-23T13:07:32.011Z,91
2023-01-23T13:08:38.094Z,91
2023-01-23T13:09:31.365Z,91
2023-01-23T13:10:31.522Z,90
2023-01-23T13:11:31.501Z,90
2023-01-23T13:12:31.349Z,90
2023-01-23T13:13:31.332Z,90
2023-01-23T13:14:36.797Z,90
2023-01-23T13:15:39.912Z,90
2023-01-23T13:16:31.351Z,90
2023-01-23T13:17:31.332Z,90
2023-01-23T13:18:31.724Z,90
2023-01-23T13:19:31.349Z,91
2023-01-23T13:20:31.337Z,91
2023-01-23T13:21:31.397Z,91
2023-01-23T13:22:32.662Z,91
2023-01-23T13:23:31.343Z,91
2023-01-23T13:24:31.358Z,91
2023-01-23T13:25:34.756Z,91
2023-01-23T13:26:31.401Z,91
2023-01-23T13:27:31.398Z,91
2023-01-23T13:28:44.206Z,91
2023-01-23T13:29:31.370Z,91
2023-01-23T13:30:31.344Z,91
2023-01-23T13:31:31.526Z,91
2023-01-23T13:32:31.449Z,91
2023-01-23T13:33:31.338Z,91
2023-01-23T13:34:31.349Z,91
2023-01-23T13:35:31.357Z,91
2023-01-23T13:36:31.357Z,91
2023-01-23T13:37:31.344Z,91
2023-01-23T13:38:31.351Z,91
2023-01-23T13:39:31.354Z,91
2023-01-23T13:40:31.319Z,91
2023-01-23T13:41:31.397Z,91
2023-01-23T13:42:31.408Z,91
2023-01-23T13:43:31.346Z,91
2023-01-23T13:44:40.973Z,91
2023-01-23T13:45:31.504Z,91
2023-01-23T13:46:31.348Z,91
2023-01-23T14:20:31.448Z,92
2023-01-23T14:21:40.778Z,92
2023-01-23T14:22:31.307Z,92
2023-01-23T14:23:31.390Z,92
2023-01-23T14:24:31.356Z,92
2023-01-23T14:25:31.348Z,92
2023-01-23T14:26:31.294Z,92
2023-01-23T14:27:32.419Z,92
2023-01-23T14:28:31.319Z,92
2023-01-23T14:29:31.335Z,92
2023-01-23T14:30:31.376Z,92
2023-01-23T14:31:31.492Z,92
2023-01-23T14:32:31.360Z,92
2023-01-23T14:33:31.374Z,92
2023-01-23T14:34:31.327Z,93
2023-01-23T14:35:31.348Z,92
2023-01-23T14:36:31.309Z,93
2023-01-23T14:37:31.333Z,93
2023-01-23T14:38:31.299Z,92
2023-01-23T14:39:31.332Z,92
2023-01-23T14:40:40.310Z,92
2023-01-23T14:41:31.960Z,92
2023-01-23T14:42:31.313Z,93
2023-01-23T14:43:31.355Z,93
2023-01-23T14:44:31.298Z,93
2023-01-23T14:45:33.140Z,93
2023-01-23T14:46:31.311Z,93
2023-01-23T14:47:34.300Z,93
2023-01-23T14:48:31.345Z,93
2023-01-23T14:49:31.358Z,93
2023-01-23T14:50:31.349Z,93